createdAt,value
2019-01-26T00:00:44.015Z,87.60
2019-01-26T00:03:12.829Z,87.61
2019-01-26T00:05:42.349Z,87.59
2019-01-26T00:08:10.968Z,87.74
2019-01-26T00:10:39.446Z,87.87
2019-01-26T00:13:07.992Z,87.87
2019-01-26T00:15:36.640Z,87.72
2019-01-26T00:18:05.511Z,87.71
2019-01-26T00:20:36.389Z,87.88
2019-01-26T00:23:04.488Z,87.76
2019-01-26T00:25:32.963Z,87.78
2019-01-26T00:28:01.446Z,87.78
2019-01-26T00:30:30.146Z,87.78
2019-01-26T00:32:58.628Z,87.85
2019-01-26T00:35:30.119Z,87.84
2019-01-26T00:37:58.727Z,87.86
2019-01-26T00:40:27.279Z,87.92
2019-01-26T00:42:55.819Z,88.00
2019-01-26T00:45:25.024Z,88.11
2019-01-26T00:47:53.492Z,88.06
2019-01-26T00:50:22.041Z,88.05
2019-01-26T00:52:50.747Z,88.11
2019-01-26T00:55:19.286Z,88.26
2019-01-26T00:57:47.832Z,88.29
2019-01-26T01:00:21.104Z,88.28
2019-01-26T01:02:49.747Z,88.32
2019-01-26T01:05:18.443Z,88.45
2019-01-26T01:07:48.110Z,88.62
2019-01-26T01:10:18.435Z,88.73
2019-01-26T01:12:47.364Z,88.80
2019-01-26T01:15:18.316Z,88.86
2019-01-26T01:17:46.789Z,88.81
2019-01-26T01:20:15.898Z,88.70
2019-01-26T01:22:44.494Z,88.72
2019-01-26T01:25:14.326Z,88.73
2019-01-26T01:27:42.879Z,88.69
2019-01-26T01:30:14.628Z,88.53
2019-01-26T01:32:43.169Z,88.45
2019-01-26T01:35:11.712Z,88.33
2019-01-26T01:37:40.307Z,88.37
2019-01-26T01:40:11.340Z,88.51
2019-01-26T01:42:40.258Z,88.76
2019-01-26T01:45:14.346Z,88.96
2019-01-26T01:47:44.112Z,89.29
2019-01-26T01:50:13.670Z,89.55
2019-01-26T01:52:43.348Z,89.75
2019-01-26T01:55:12.191Z,89.85
2019-01-26T01:57:40.657Z,89.92
2019-01-26T02:00:15.137Z,90.01
2019-01-26T02:02:43.680Z,90.13
2019-01-26T02:05:12.381Z,90.19
2019-01-26T02:07:41.013Z,90.23
2019-01-26T02:10:13.513Z,90.38
2019-01-26T02:12:42.015Z,90.39
2019-01-26T02:15:12.081Z,90.52
2019-01-26T02:17:40.881Z,90.66
2019-01-26T02:20:12.405Z,90.68
2019-01-26T02:22:40.934Z,90.77
2019-01-26T02:25:09.669Z,90.83
2019-01-26T02:27:38.212Z,90.85
2019-01-26T02:30:10.406Z,90.88
2019-01-26T02:32:38.888Z,90.81
2019-01-26T02:35:07.826Z,90.73
2019-01-26T02:37:36.409Z,90.63
2019-01-26T02:40:08.070Z,90.57
2019-01-26T02:42:36.624Z,90.42
2019-01-26T02:45:07.991Z,90.33
2019-01-26T02:47:36.473Z,90.28
2019-01-26T02:50:08.099Z,90.22
2019-01-26T02:52:36.628Z,90.16
2019-01-26T02:55:06.249Z,90.08
2019-01-26T02:57:34.886Z,90.03
2019-01-26T03:00:05.107Z,89.97
2019-01-26T03:02:34.621Z,89.92
2019-01-26T03:05:03.769Z,89.85
2019-01-26T03:07:32.357Z,89.79
2019-01-26T03:10:00.917Z,89.69
2019-01-26T03:12:30.352Z,89.68
2019-01-26T03:14:58.892Z,89.68
2019-01-26T03:17:27.372Z,89.69
2019-01-26T03:19:55.846Z,89.70
2019-01-26T03:22:24.414Z,89.74
2019-01-26T03:24:52.956Z,89.79
2019-01-26T03:27:21.432Z,89.84
2019-01-26T03:29:49.999Z,89.83
2019-01-26T03:32:18.672Z,89.80
2019-01-26T03:34:48.577Z,89.80
2019-01-26T03:37:17.174Z,89.69
2019-01-26T03:39:45.720Z,89.58
2019-01-26T03:42:15.157Z,89.33
2019-01-26T03:44:43.781Z,89.13
2019-01-26T03:47:18.222Z,88.97
2019-01-26T03:49:46.709Z,88.88
2019-01-26T03:52:15.250Z,88.83
2019-01-26T03:54:43.774Z,88.84
2019-01-26T03:57:12.324Z,88.87
2019-01-26T03:59:40.854Z,88.96
2019-01-26T04:02:09.540Z,89.05
2019-01-26T04:04:38.088Z,89.26
2019-01-26T04:07:06.792Z,89.45
2019-01-26T04:09:35.291Z,89.41
2019-01-26T04:12:03.813Z,89.41
2019-01-26T04:14:33.425Z,89.36
2019-01-26T04:17:01.968Z,89.41
2019-01-26T04:19:30.426Z,89.30
2019-01-26T04:21:58.965Z,89.08
2019-01-26T04:24:27.494Z,89.14
2019-01-26T04:26:55.980Z,89.21
2019-01-26T04:29:24.551Z,89.12
2019-01-26T04:31:53.028Z,89.01
2019-01-26T04:34:21.500Z,89.02
2019-01-26T04:36:50.041Z,88.98
2019-01-26T04:39:18.513Z,88.85
2019-01-26T04:41:46.972Z,88.75
2019-01-26T04:44:15.507Z,88.75
2019-01-26T04:46:44.050Z,88.62
2019-01-26T04:49:12.525Z,88.62
2019-01-26T04:51:41.092Z,88.63
2019-01-26T04:54:09.631Z,88.51
2019-01-26T04:56:38.175Z,88.35
2019-01-26T04:59:06.735Z,88.11
2019-01-26T05:01:35.233Z,88.04
2019-01-26T05:04:03.977Z,87.97
2019-01-26T05:06:32.506Z,88.00
2019-01-26T05:09:01.995Z,88.06
2019-01-26T05:11:30.453Z,88.00
2019-01-26T05:13:58.973Z,88.04
2019-01-26T05:16:28.417Z,88.16
2019-01-26T05:18:57.046Z,88.07
2019-01-26T05:21:25.978Z,88.10
2019-01-26T05:23:54.443Z,88.09
2019-01-26T05:26:22.982Z,88.12
2019-01-26T05:28:51.524Z,88.07
2019-01-26T05:31:19.995Z,88.18
2019-01-26T05:33:48.474Z,88.02
2019-01-26T05:36:17.197Z,87.99
2019-01-26T05:38:45.667Z,88.03
2019-01-26T05:41:14.133Z,87.95
2019-01-26T05:43:42.863Z,87.82
2019-01-26T05:46:11.326Z,87.70
2019-01-26T05:48:39.803Z,87.76
2019-01-26T05:51:08.320Z,87.77
2019-01-26T05:53:36.864Z,87.87
2019-01-26T05:56:05.568Z,88.06
2019-01-26T05:58:34.112Z,88.32
2019-01-26T06:01:02.594Z,88.41
2019-01-26T06:03:32.005Z,88.48
2019-01-26T06:06:01.481Z,88.58
2019-01-26T06:08:29.948Z,88.62
2019-01-26T06:10:58.499Z,88.65
2019-01-26T06:13:27.019Z,88.89
2019-01-26T06:15:55.499Z,88.89
2019-01-26T06:18:25.823Z,88.87
2019-01-26T06:20:54.343Z,88.91
2019-01-26T06:23:22.856Z,89.01
2019-01-26T06:25:51.349Z,89.13
2019-01-26T06:28:19.941Z,89.21
2019-01-26T06:30:48.482Z,89.31
2019-01-26T06:33:16.956Z,89.27
2019-01-26T06:35:45.487Z,89.30
2019-01-26T06:38:14.085Z,89.40
2019-01-26T06:40:42.583Z,89.51
2019-01-26T06:43:11.114Z,89.60
2019-01-26T06:45:39.600Z,89.67
2019-01-26T06:48:08.140Z,89.74
2019-01-26T06:50:36.741Z,89.96
2019-01-26T06:53:05.371Z,89.91
2019-01-26T06:55:33.901Z,89.98
2019-01-26T06:58:02.446Z,89.90
2019-01-26T07:00:31.298Z,89.84
2019-01-26T07:03:00.104Z,89.90
2019-01-26T07:05:33.143Z,89.82
2019-01-26T07:08:01.613Z,89.76
2019-01-26T07:10:30.146Z,89.65
2019-01-26T07:12:58.777Z,89.67
2019-01-26T07:15:27.247Z,89.83
2019-01-26T07:17:56.854Z,89.99
2019-01-26T07:20:26.395Z,89.92
2019-01-26T07:22:54.867Z,89.94
2019-01-26T07:25:23.418Z,90.18
2019-01-26T07:27:52.005Z,90.30
2019-01-26T07:30:22.678Z,90.73
2019-01-26T07:32:51.354Z,90.75
2019-01-26T07:35:20.013Z,90.90
2019-01-26T07:37:48.551Z,91.04
2019-01-26T07:40:22.158Z,91.27
2019-01-26T07:42:52.007Z,91.57
2019-01-26T07:45:20.831Z,91.46
2019-01-26T07:47:49.365Z,91.57
2019-01-26T07:50:23.446Z,91.76
2019-01-26T07:52:51.978Z,91.84
2019-01-26T07:55:20.585Z,91.95
2019-01-26T07:57:49.332Z,91.78
2019-01-26T08:00:23.422Z,91.66
2019-01-26T08:02:52.102Z,91.64
2019-01-26T08:05:20.875Z,91.73
2019-01-26T08:07:49.608Z,92.09
2019-01-26T08:10:20.949Z,92.36
2019-01-26T08:12:50.236Z,92.56
2019-01-26T08:15:21.588Z,92.75
2019-01-26T08:17:50.117Z,92.80
2019-01-26T08:20:20.683Z,92.72
2019-01-26T08:22:50.093Z,92.88
2019-01-26T08:25:31.350Z,92.96
2019-01-26T08:28:07.517Z,93.21
2019-01-26T08:30:36.178Z,93.14
2019-01-26T08:33:04.994Z,93.25
2019-01-26T08:35:33.535Z,93.07
2019-01-26T08:38:02.554Z,92.83
2019-01-26T08:40:31.017Z,92.84
2019-01-26T08:42:59.661Z,92.63
2019-01-26T08:45:28.246Z,92.50
2019-01-26T08:47:56.721Z,92.17
2019-01-26T08:50:25.647Z,92.06
2019-01-26T08:52:54.259Z,91.97
2019-01-26T08:55:23.158Z,91.90
2019-01-26T08:57:51.877Z,91.97
2019-01-26T09:00:22.606Z,91.88
2019-01-26T09:02:54.046Z,91.95
2019-01-26T09:05:27.585Z,92.12
2019-01-26T09:07:56.048Z,92.09
2019-01-26T09:10:24.516Z,92.11
2019-01-26T09:12:53.134Z,91.97
2019-01-26T09:15:22.503Z,91.78
2019-01-26T09:17:51.041Z,91.68
2019-01-26T09:20:19.560Z,91.60
2019-01-26T09:22:48.029Z,91.63
2019-01-26T09:25:17.430Z,91.71
2019-01-26T09:27:46.326Z,91.62
2019-01-26T09:30:23.344Z,91.49
2019-01-26T09:32:52.009Z,91.65
2019-01-26T09:35:20.484Z,91.49
2019-01-26T09:37:49.162Z,91.26
2019-01-26T09:40:20.191Z,91.11
2019-01-26T09:42:49.876Z,90.99
2019-01-26T09:45:19.807Z,91.04
2019-01-26T09:47:48.605Z,91.15
2019-01-26T09:50:17.911Z,91.12
2019-01-26T09:52:46.370Z,91.12
2019-01-26T09:55:19.829Z,91.17
2019-01-26T09:57:48.384Z,90.63
2019-01-26T10:00:19.505Z,90.63
2019-01-26T10:02:48.098Z,89.96
2019-01-26T10:05:17.014Z,89.56
2019-01-26T10:07:45.502Z,89.29
2019-01-26T10:10:15.709Z,89.19
2019-01-26T10:12:44.547Z,88.61
2019-01-26T10:15:22.195Z,88.52
2019-01-26T10:17:50.935Z,88.77
2019-01-26T10:20:22.384Z,89.42
2019-01-26T10:22:50.980Z,89.42
2019-01-26T10:25:19.783Z,89.92
2019-01-26T10:27:48.550Z,90.08
2019-01-26T10:30:33.745Z,90.45
2019-01-26T10:33:02.287Z,90.67
2019-01-26T10:35:44.913Z,90.84
2019-01-26T10:38:13.447Z,91.22
2019-01-26T10:40:43.775Z,91.62
2019-01-26T10:43:13.946Z,92.17
2019-01-26T10:45:42.473Z,92.06
2019-01-26T10:48:10.932Z,92.45
2019-01-26T10:50:39.461Z,92.76
2019-01-26T10:53:07.942Z,92.78
2019-01-26T10:55:36.401Z,92.95
2019-01-26T10:58:05.357Z,93.14
2019-01-26T11:00:33.974Z,93.07
2019-01-26T11:03:02.585Z,93.30
2019-01-26T11:05:32.164Z,93.43
2019-01-26T11:08:06.011Z,93.40
2019-01-26T11:10:34.731Z,93.31
2019-01-26T11:13:06.062Z,93.58
2019-01-26T11:15:34.663Z,93.56
2019-01-26T11:18:04.646Z,93.43
2019-01-26T11:20:33.240Z,93.54
2019-01-26T11:23:01.717Z,93.58
2019-01-26T11:25:30.243Z,93.04
2019-01-26T11:27:58.782Z,93.04
2019-01-26T11:30:29.058Z,92.86
2019-01-26T11:32:57.627Z,92.69
2019-01-26T11:35:26.534Z,91.99
2019-01-26T11:37:55.093Z,91.99
2019-01-26T11:40:23.662Z,92.63
2019-01-26T11:42:52.510Z,92.63
2019-01-26T11:45:22.894Z,92.74
2019-01-26T11:47:51.652Z,93.30
2019-01-26T11:50:21.882Z,94.36
2019-01-26T11:52:50.417Z,94.26
2019-01-26T11:55:33.017Z,94.62
2019-01-26T11:58:01.496Z,94.62
2019-01-26T12:00:31.765Z,94.22
2019-01-26T12:03:03.523Z,94.50
2019-01-26T12:05:35.186Z,94.38
2019-01-26T12:08:03.966Z,94.12
2019-01-26T12:10:32.684Z,94.12
2019-01-26T12:13:01.235Z,94.21
2019-01-26T12:15:30.717Z,94.13
2019-01-26T12:17:59.332Z,94.13
2019-01-26T12:20:27.867Z,94.06
2019-01-26T12:22:56.421Z,94.35
2019-01-26T12:25:25.086Z,94.35
2019-01-26T12:27:53.624Z,94.55
2019-01-26T12:30:22.085Z,94.55
2019-01-26T12:32:51.546Z,94.74
2019-01-26T12:35:20.109Z,94.97
2019-01-26T12:37:48.724Z,94.97
2019-01-26T12:40:17.275Z,94.98
2019-01-26T12:42:45.869Z,94.98
2019-01-26T12:45:20.535Z,95.63
2019-01-26T12:47:49.102Z,95.87
2019-01-26T12:50:18.863Z,95.87
2019-01-26T12:52:47.609Z,95.97
2019-01-26T12:55:17.762Z,96.15
2019-01-26T12:57:46.372Z,96.60
2019-01-26T13:00:20.625Z,97.15
2019-01-26T13:02:49.473Z,97.15
2019-01-26T13:05:18.272Z,96.81
2019-01-26T13:07:47.080Z,97.29
2019-01-26T13:10:36.860Z,97.29
2019-01-26T13:13:06.273Z,97.46
2019-01-26T13:15:34.932Z,97.66
2019-01-26T13:18:03.912Z,97.66
2019-01-26T13:20:32.677Z,97.93
2019-01-26T13:23:01.212Z,98.27
2019-01-26T13:25:29.801Z,98.27
2019-01-26T13:27:58.280Z,97.98
2019-01-26T13:30:26.743Z,97.98
2019-01-26T13:32:55.340Z,98.19
2019-01-26T13:35:24.113Z,98.25
2019-01-26T13:37:52.673Z,98.25
2019-01-26T13:40:28.029Z,98.43
2019-01-26T13:42:56.644Z,98.89
2019-01-26T13:45:25.186Z,99.25
2019-01-26T13:47:53.848Z,99.48
2019-01-26T13:50:22.305Z,99.48
2019-01-26T13:52:50.774Z,99.44
2019-01-26T13:55:21.146Z,99.55
2019-01-26T13:57:50.109Z,100.00
2019-01-26T14:00:33.788Z,100.00
2019-01-26T14:03:03.429Z,100.00
2019-01-26T14:05:31.899Z,100.00
2019-01-26T14:08:00.539Z,100.00
2019-01-26T14:10:30.079Z,100.00
2019-01-26T14:12:58.656Z,100.00
2019-01-26T14:15:27.197Z,100.00
2019-01-26T14:17:55.836Z,100.00
2019-01-26T14:20:25.846Z,100.00
2019-01-26T14:22:54.504Z,100.00
2019-01-26T14:25:23.514Z,100.00
2019-01-26T14:27:52.133Z,100.00
2019-01-26T14:30:36.017Z,100.00
2019-01-26T14:33:04.932Z,100.00
2019-01-26T14:35:33.483Z,100.00
2019-01-26T14:38:03.060Z,100.00
2019-01-26T14:40:31.775Z,100.00
2019-01-26T14:43:00.442Z,100.00
2019-01-26T14:45:29.341Z,100.00
2019-01-26T14:47:57.971Z,100.00
2019-01-26T14:50:26.526Z,100.00
2019-01-26T14:52:55.232Z,100.00
2019-01-26T14:55:26.147Z,100.00
2019-01-26T14:57:54.708Z,100.00
2019-01-26T15:00:31.740Z,100.00
2019-01-26T15:03:00.506Z,100.00
2019-01-26T15:05:29.621Z,100.00
2019-01-26T15:07:58.403Z,100.00
2019-01-26T15:10:27.209Z,100.00
2019-01-26T15:12:55.677Z,100.00
2019-01-26T15:15:24.578Z,100.00
2019-01-26T15:17:53.118Z,100.00
2019-01-26T15:20:24.251Z,100.00
2019-01-26T15:22:52.770Z,100.00
2019-01-26T15:25:21.385Z,100.00
2019-01-26T15:27:50.971Z,100.00
2019-01-26T15:30:25.001Z,100.00
2019-01-26T15:32:53.615Z,100.00
2019-01-26T15:35:22.182Z,100.00
2019-01-26T15:37:50.711Z,100.00
2019-01-26T15:40:20.313Z,100.00
2019-01-26T15:42:48.841Z,100.00
2019-01-26T15:45:23.212Z,100.00
2019-01-26T15:47:51.824Z,100.00
2019-01-26T15:50:20.459Z,100.00
2019-01-26T15:52:49.000Z,100.00
2019-01-26T15:55:20.518Z,100.00
2019-01-26T15:57:49.226Z,100.00
2019-01-26T16:00:23.274Z,100.00
2019-01-26T16:02:51.842Z,100.00
2019-01-26T16:05:20.675Z,100.00
2019-01-26T16:07:49.324Z,100.00
2019-01-26T16:10:25.004Z,100.00
2019-01-26T16:12:53.722Z,100.00
2019-01-26T16:15:27.373Z,100.00
2019-01-26T16:17:56.092Z,100.00
2019-01-26T16:20:24.915Z,100.00
2019-01-26T16:22:53.700Z,100.00
2019-01-26T16:25:22.396Z,100.00
2019-01-26T16:27:50.942Z,100.00
2019-01-26T16:30:25.097Z,100.00
2019-01-26T16:32:53.594Z,100.00
2019-01-26T16:35:22.137Z,100.00
2019-01-26T16:37:50.743Z,100.00
2019-01-26T16:40:21.557Z,100.00
2019-01-26T16:42:50.356Z,100.00
2019-01-26T16:45:24.600Z,100.00
2019-01-26T16:47:53.212Z,100.00
2019-01-26T16:50:27.685Z,100.00
2019-01-26T16:52:54.492Z,100.00
2019-01-26T16:55:23.315Z,100.00
2019-01-26T16:57:51.806Z,100.00
2019-01-26T17:00:23.401Z,100.00
2019-01-26T17:02:52.043Z,100.00
2019-01-26T17:05:25.765Z,100.00
2019-01-26T17:07:50.990Z,100.00
2019-01-26T17:10:20.898Z,100.00
2019-01-26T17:12:49.547Z,100.00
2019-01-26T17:15:18.224Z,100.00
2019-01-26T17:17:46.890Z,100.00
2019-01-26T17:20:21.398Z,100.00
2019-01-26T17:22:50.047Z,100.00
2019-01-26T17:25:18.697Z,100.00
2019-01-26T17:27:47.173Z,100.00
2019-01-26T17:30:18.757Z,100.00
2019-01-26T17:32:47.385Z,100.00
2019-01-26T17:35:15.942Z,100.00
2019-01-26T17:37:44.730Z,100.00
2019-01-26T17:40:15.840Z,100.00
2019-01-26T17:42:44.380Z,100.00
2019-01-26T17:45:15.940Z,100.00
2019-01-26T17:47:44.546Z,100.00
2019-01-26T17:50:21.881Z,100.00
2019-01-26T17:52:50.456Z,100.00
2019-01-26T17:55:18.998Z,100.00
2019-01-26T17:57:47.667Z,100.00
2019-01-26T18:00:44.229Z,100.00
2019-01-26T18:03:13.383Z,100.00
2019-01-26T18:05:41.953Z,100.00
2019-01-26T18:08:11.460Z,100.00
2019-01-26T18:10:40.837Z,100.00
2019-01-26T18:13:09.462Z,100.00
2019-01-26T18:15:38.073Z,100.00
2019-01-26T18:18:06.673Z,100.00
2019-01-26T18:20:35.228Z,100.00
2019-01-26T18:23:03.829Z,100.00
2019-01-26T18:25:34.264Z,100.00
2019-01-26T18:28:02.877Z,100.00
2019-01-26T18:30:34.789Z,100.00
2019-01-26T18:33:03.388Z,100.00
2019-01-26T18:35:31.925Z,100.00
2019-01-26T18:38:00.695Z,100.00
2019-01-26T18:40:30.324Z,100.00
2019-01-26T18:42:59.083Z,100.00
2019-01-26T18:45:31.382Z,100.00
2019-01-26T18:48:00.953Z,100.00
2019-01-26T18:50:35.321Z,100.00
2019-01-26T18:53:04.258Z,100.00
2019-01-26T18:55:32.995Z,100.00
2019-01-26T18:58:03.106Z,100.00
2019-01-26T19:00:37.472Z,100.00
2019-01-26T19:03:15.319Z,100.00
2019-01-26T19:05:43.877Z,100.00
2019-01-26T19:08:12.346Z,100.00
2019-01-26T19:10:40.900Z,100.00
2019-01-26T19:13:09.451Z,100.00
2019-01-26T19:15:39.534Z,100.00
2019-01-26T19:18:08.152Z,100.00
2019-01-26T19:20:36.745Z,100.00
2019-01-26T19:23:05.581Z,100.00
2019-01-26T19:25:34.116Z,100.00
2019-01-26T19:28:02.598Z,100.00
2019-01-26T19:30:31.144Z,100.00
2019-01-26T19:32:59.909Z,100.00
2019-01-26T19:35:28.382Z,100.00
2019-01-26T19:37:56.869Z,100.00
2019-01-26T19:40:27.432Z,100.00
2019-01-26T19:42:55.936Z,100.00
2019-01-26T19:45:25.004Z,100.00
2019-01-26T19:47:53.702Z,100.00
2019-01-26T19:50:26.460Z,100.00
2019-01-26T19:52:55.015Z,100.00
2019-01-26T19:55:24.370Z,100.00
2019-01-26T19:57:52.916Z,100.00
2019-01-26T20:00:21.731Z,100.00
2019-01-26T20:02:51.534Z,100.00
2019-01-26T20:05:22.054Z,100.00
2019-01-26T20:07:50.790Z,100.00
2019-01-26T20:10:19.981Z,100.00
2019-01-26T20:12:48.689Z,100.00
2019-01-26T20:15:22.100Z,100.00
2019-01-26T20:17:50.977Z,100.00
2019-01-26T20:20:22.499Z,100.00
2019-01-26T20:22:51.239Z,100.00
2019-01-26T20:25:20.007Z,100.00
2019-01-26T20:27:48.624Z,100.00
2019-01-26T20:30:20.536Z,100.00
2019-01-26T20:32:50.098Z,100.00
2019-01-26T20:35:18.673Z,100.00
2019-01-26T20:37:47.226Z,100.00
2019-01-26T20:40:18.397Z,100.00
2019-01-26T20:42:47.050Z,100.00
2019-01-26T20:45:20.831Z,100.00
2019-01-26T20:47:49.417Z,100.00
2019-01-26T20:50:17.989Z,100.00
2019-01-26T20:52:46.602Z,100.00
2019-01-26T20:55:15.278Z,100.00
2019-01-26T20:57:44.011Z,100.00
2019-01-26T21:00:18.260Z,100.00
2019-01-26T21:02:46.842Z,100.00
2019-01-26T21:05:16.249Z,100.00
2019-01-26T21:07:44.814Z,100.00
2019-01-26T21:10:26.043Z,100.00
2019-01-26T21:12:54.744Z,100.00
2019-01-26T21:15:23.672Z,100.00
2019-01-26T21:17:52.264Z,100.00
2019-01-26T21:20:22.875Z,100.00
2019-01-26T21:22:51.533Z,100.00
2019-01-26T21:25:20.179Z,100.00
2019-01-26T21:27:48.997Z,100.00
2019-01-26T21:30:20.318Z,100.00
2019-01-26T21:32:48.999Z,100.00
2019-01-26T21:35:22.841Z,100.00
2019-01-26T21:37:51.442Z,100.00
2019-01-26T21:40:22.217Z,100.00
2019-01-26T21:42:50.780Z,100.00
2019-01-26T21:45:19.743Z,100.00
2019-01-26T21:47:48.451Z,100.00
2019-01-26T21:50:19.760Z,100.00
2019-01-26T21:52:48.469Z,100.00
2019-01-26T21:55:18.015Z,100.00
2019-01-26T21:57:46.556Z,100.00
2019-01-26T22:00:23.299Z,100.00
2019-01-26T22:02:52.023Z,100.00
2019-01-26T22:05:20.509Z,100.00
2019-01-26T22:07:49.351Z,100.00
2019-01-26T22:10:25.900Z,100.00
2019-01-26T22:12:54.640Z,100.00
2019-01-26T22:15:24.249Z,100.00
2019-01-26T22:17:52.985Z,100.00
2019-01-26T22:20:23.678Z,100.00
2019-01-26T22:22:52.806Z,100.00
2019-01-26T22:25:21.621Z,100.00
2019-01-26T22:27:50.324Z,100.00
2019-01-26T22:30:24.647Z,100.00
2019-01-26T22:32:53.201Z,100.00
2019-01-26T22:35:22.273Z,100.00
2019-01-26T22:37:50.756Z,100.00
2019-01-26T22:40:27.680Z,100.00
2019-01-26T22:42:56.246Z,100.00
2019-01-26T22:45:26.994Z,100.00
2019-01-26T22:47:55.709Z,100.00
2019-01-26T22:50:26.023Z,100.00
2019-01-26T22:52:55.051Z,100.00
2019-01-26T22:55:23.913Z,100.00
2019-01-26T22:57:53.443Z,100.00
2019-01-26T23:00:38.505Z,100.00
2019-01-26T23:03:09.876Z,100.00
2019-01-26T23:06:05.782Z,100.00
2019-01-26T23:08:35.818Z,100.00
2019-01-26T23:11:25.729Z,100.00
2019-01-26T23:13:57.258Z,100.00
2019-01-26T23:16:44.079Z,100.00
2019-01-26T23:19:24.773Z,100.00
2019-01-26T23:22:15.360Z,100.00
2019-01-26T23:24:53.103Z,100.00
2019-01-26T23:27:27.613Z,100.00
2019-01-26T23:30:32.345Z,100.00
2019-01-26T23:33:00.962Z,100.00
2019-01-26T23:35:29.517Z,100.00
